createdAt,value
2023-05-14T00:00:04.980Z,101530.84
2023-05-14T00:02:52.679Z,101527.59
2023-05-14T00:05:39.170Z,101526.03
2023-05-14T00:08:25.111Z,101521.47
2023-05-14T00:11:11.151Z,101512.44
2023-05-14T00:13:58.462Z,101509.94
2023-05-14T00:16:44.304Z,101505.38
2023-05-14T00:19:30.229Z,101507.31
2023-05-14T00:22:16.138Z,101503.78
2023-05-14T00:25:02.028Z,101500.47
2023-05-14T00:27:47.950Z,101497.75
2023-05-14T00:30:35.213Z,101504.47
2023-05-14T00:33:21.286Z,101517.66
2023-05-14T00:36:08.033Z,101514.22
2023-05-14T00:38:54.184Z,101505.31
2023-05-14T00:41:40.176Z,101504.56
2023-05-14T00:44:26.037Z,101509.31
2023-05-14T00:47:13.313Z,101507.19
2023-05-14T00:49:59.559Z,101504.09
2023-05-14T00:52:45.805Z,101505.69
2023-05-14T00:55:31.907Z,101506.72
2023-05-14T00:58:18.794Z,101502.25
2023-05-14T01:01:04.784Z,101502.25
2023-05-14T01:03:53.444Z,101497.19
2023-05-14T01:06:47.107Z,101506.34
2023-05-14T01:09:37.690Z,101500.19
2023-05-14T01:12:28.140Z,101498.50
2023-05-14T01:15:16.776Z,101506.09
2023-05-14T01:18:12.432Z,101513.25
2023-05-14T01:20:59.781Z,101506.94
2023-05-14T01:23:47.253Z,101513.06
2023-05-14T01:26:33.596Z,101514.81
2023-05-14T01:29:22.946Z,101513.84
2023-05-14T01:32:09.689Z,101512.72
2023-05-14T01:34:56.780Z,101510.88
2023-05-14T01:37:43.113Z,101514.22
2023-05-14T01:40:33.838Z,101514.88
2023-05-14T01:43:19.985Z,101511.53
2023-05-14T01:46:06.194Z,101514.88
2023-05-14T01:48:52.585Z,101503.47
2023-05-14T01:51:38.784Z,101510.22
2023-05-14T01:54:25.015Z,101509.81
2023-05-14T01:57:12.639Z,101504.63
2023-05-14T01:59:59.041Z,101508.78
2023-05-14T02:02:48.116Z,101510.00
2023-05-14T02:05:34.457Z,101508.31
2023-05-14T02:08:20.746Z,101502.94
2023-05-14T02:11:07.961Z,101495.66
2023-05-14T02:13:56.300Z,101499.50
2023-05-14T02:16:42.573Z,101494.78
2023-05-14T02:19:28.486Z,101496.97
2023-05-14T02:22:14.400Z,101501.03
2023-05-14T02:25:00.996Z,101487.69
2023-05-14T02:27:47.383Z,101489.06
2023-05-14T02:30:34.550Z,101486.19
2023-05-14T02:33:20.571Z,101489.78
2023-05-14T02:36:07.046Z,101488.81
2023-05-14T02:38:52.902Z,101492.50
2023-05-14T02:41:38.916Z,101487.50
2023-05-14T02:44:24.743Z,101495.44
2023-05-14T02:47:12.216Z,101488.22
2023-05-14T02:49:58.946Z,101482.53
2023-05-14T02:52:45.158Z,101485.75
2023-05-14T02:55:31.442Z,101485.94
2023-05-14T02:58:17.612Z,101480.91
2023-05-14T03:01:03.692Z,101482.47
2023-05-14T03:03:51.830Z,101482.09
2023-05-14T03:06:38.699Z,101475.06
2023-05-14T03:09:24.449Z,101478.75
2023-05-14T03:12:10.464Z,101479.28
2023-05-14T03:14:56.691Z,101476.59
2023-05-14T03:17:42.958Z,101473.97
2023-05-14T03:20:30.111Z,101472.28
2023-05-14T03:23:16.880Z,101481.34
2023-05-14T03:26:04.878Z,101480.53
2023-05-14T03:28:51.774Z,101487.56
2023-05-14T03:31:37.985Z,101478.66
2023-05-14T03:34:24.482Z,101481.72
2023-05-14T03:37:12.073Z,101475.69
2023-05-14T03:39:58.342Z,101470.97
2023-05-14T03:42:44.174Z,101481.38
2023-05-14T03:45:30.553Z,101470.63
2023-05-14T03:48:18.658Z,101473.31
2023-05-14T03:51:05.306Z,101476.72
2023-05-14T03:53:52.499Z,101473.06
2023-05-14T03:56:38.455Z,101473.25
2023-05-14T03:59:24.287Z,101475.56
2023-05-14T04:02:10.576Z,101475.56
2023-05-14T04:04:56.795Z,101480.78
2023-05-14T04:07:42.554Z,101485.47
2023-05-14T04:10:29.804Z,101476.41
2023-05-14T04:13:16.344Z,101478.22
2023-05-14T04:16:02.832Z,101474.31
2023-05-14T04:18:49.022Z,101472.28
2023-05-14T04:21:35.350Z,101477.31
2023-05-14T04:24:21.213Z,101479.50
2023-05-14T04:27:08.413Z,101469.28
2023-05-14T04:29:54.282Z,101475.97
2023-05-14T04:32:40.686Z,101472.19
2023-05-14T04:35:26.568Z,101465.75
2023-05-14T04:38:14.075Z,101468.97
2023-05-14T04:41:00.305Z,101463.78
2023-05-14T04:43:47.979Z,101470.16
2023-05-14T04:46:33.991Z,101470.28
2023-05-14T04:49:20.745Z,101470.78
2023-05-14T04:52:07.015Z,101473.59
2023-05-14T04:54:52.989Z,101473.53
2023-05-14T04:57:39.038Z,101472.19
2023-05-14T05:00:26.960Z,101472.78
2023-05-14T05:03:13.714Z,101480.16
2023-05-14T05:06:00.184Z,101473.13
2023-05-14T05:08:46.351Z,101470.31
2023-05-14T05:11:32.158Z,101470.16
2023-05-14T05:14:18.177Z,101467.94
2023-05-14T05:17:05.871Z,101476.59
2023-05-14T05:19:52.513Z,101468.69
2023-05-14T05:22:38.361Z,101465.44
2023-05-14T05:25:24.328Z,101472.03
2023-05-14T05:28:10.254Z,101463.41
2023-05-14T05:30:56.343Z,101474.03
2023-05-14T05:33:43.905Z,101462.88
2023-05-14T05:36:30.031Z,101467.13
2023-05-14T05:39:16.109Z,101473.91
2023-05-14T05:42:02.526Z,101470.06
2023-05-14T05:44:48.392Z,101473.50
2023-05-14T05:47:34.255Z,101462.50
2023-05-14T05:50:21.509Z,101468.91
2023-05-14T05:53:07.668Z,101471.63
2023-05-14T05:55:53.644Z,101464.22
2023-05-14T05:58:39.618Z,101467.44
2023-05-14T06:01:26.411Z,101460.63
2023-05-14T06:04:12.401Z,101469.00
2023-05-14T06:06:59.599Z,101466.81
2023-05-14T06:09:45.482Z,101467.03
2023-05-14T06:12:31.547Z,101468.00
2023-05-14T06:15:17.752Z,101473.22
2023-05-14T06:18:03.724Z,101468.28
2023-05-14T06:20:50.201Z,101479.81
2023-05-14T06:23:37.794Z,101473.69
2023-05-14T06:26:24.067Z,101471.09
2023-05-14T06:29:10.349Z,101474.88
2023-05-14T06:31:58.743Z,101477.38
2023-05-14T06:34:44.786Z,101479.03
2023-05-14T06:37:30.733Z,101472.03
2023-05-14T06:40:19.296Z,101474.50
2023-05-14T06:43:06.566Z,101475.16
2023-05-14T06:45:53.024Z,101471.63
2023-05-14T06:48:39.155Z,101468.75
2023-05-14T06:51:25.638Z,101470.38
2023-05-14T06:54:11.590Z,101478.47
2023-05-14T06:56:58.773Z,101469.50
2023-05-14T06:59:44.614Z,101472.44
2023-05-14T07:02:30.706Z,101467.88
2023-05-14T07:05:16.709Z,101462.06
2023-05-14T07:08:03.006Z,101461.81
2023-05-14T07:10:49.052Z,101458.78
2023-05-14T07:13:36.539Z,101461.22
2023-05-14T07:16:22.420Z,101456.41
2023-05-14T07:19:08.439Z,101449.41
2023-05-14T07:21:54.734Z,101445.41
2023-05-14T07:24:40.616Z,101451.03
2023-05-14T07:27:26.475Z,101444.47
2023-05-14T07:30:14.268Z,101447.03
2023-05-14T07:33:01.067Z,101451.88
2023-05-14T07:35:47.085Z,101438.59
2023-05-14T07:38:33.191Z,101431.03
2023-05-14T07:41:19.224Z,101435.19
2023-05-14T07:44:05.141Z,101439.81
2023-05-14T07:46:52.548Z,101433.75
2023-05-14T07:49:38.421Z,101430.31
2023-05-14T07:52:24.463Z,101433.88
2023-05-14T07:55:11.328Z,101424.69
2023-05-14T07:57:58.200Z,101427.44
2023-05-14T08:00:44.242Z,101418.66
2023-05-14T08:03:31.661Z,101419.72
2023-05-14T08:06:17.806Z,101415.66
2023-05-14T08:09:05.322Z,101420.75
2023-05-14T08:11:51.280Z,101412.25
2023-05-14T08:14:37.259Z,101413.09
2023-05-14T08:17:23.616Z,101408.72
2023-05-14T08:20:12.536Z,101409.03
2023-05-14T08:22:58.812Z,101402.09
2023-05-14T08:25:44.743Z,101409.56
2023-05-14T08:28:31.135Z,101399.78
2023-05-14T08:31:17.179Z,101408.81
2023-05-14T08:34:03.494Z,101405.59
2023-05-14T08:36:50.920Z,101402.78
2023-05-14T08:39:36.718Z,101399.34
2023-05-14T08:42:25.353Z,101394.94
2023-05-14T08:45:14.945Z,101395.19
2023-05-14T08:48:01.856Z,101388.41
2023-05-14T08:50:47.922Z,101390.03
2023-05-14T08:53:35.192Z,101388.63
2023-05-14T08:56:21.801Z,101388.75
2023-05-14T08:59:07.573Z,101389.81
2023-05-14T09:01:54.879Z,101385.69
2023-05-14T09:04:41.931Z,101380.66
2023-05-14T09:07:28.408Z,101382.56
2023-05-14T09:10:15.956Z,101381.56
2023-05-14T09:13:01.895Z,101385.97
2023-05-14T09:15:49.100Z,101379.63
2023-05-14T09:18:37.071Z,101365.63
2023-05-14T09:21:23.070Z,101375.81
2023-05-14T09:24:09.357Z,101369.78
2023-05-14T09:26:58.268Z,101372.06
2023-05-14T09:29:44.416Z,101358.22
2023-05-14T09:32:36.519Z,101352.75
2023-05-14T09:35:24.329Z,101365.09
2023-05-14T09:38:10.119Z,101354.09
2023-05-14T09:40:56.290Z,101350.53
2023-05-14T09:43:43.801Z,101351.09
2023-05-14T09:46:31.452Z,101348.06
2023-05-14T09:49:17.307Z,101346.41
2023-05-14T09:52:03.958Z,101344.59
2023-05-14T09:54:51.302Z,101350.28
2023-05-14T09:57:37.643Z,101348.25
2023-05-14T10:00:25.071Z,101344.81
2023-05-14T10:03:15.232Z,101331.25
2023-05-14T10:06:06.339Z,101334.91
2023-05-14T10:08:55.023Z,101332.47
2023-05-14T10:11:44.130Z,101316.44
2023-05-14T10:14:34.886Z,101325.06
2023-05-14T10:17:22.380Z,101315.34
2023-05-14T10:20:10.057Z,101319.50
2023-05-14T10:22:56.457Z,101322.25
2023-05-14T10:25:42.847Z,101315.91
2023-05-14T10:28:29.023Z,101310.75
2023-05-14T10:31:15.645Z,101313.38
2023-05-14T10:34:03.771Z,101311.72
2023-05-14T10:36:49.716Z,101310.91
2023-05-14T10:39:46.141Z,101310.53
2023-05-14T10:42:35.326Z,101302.38
2023-05-14T10:45:23.755Z,101298.72
2023-05-14T10:48:09.604Z,101301.31
2023-05-14T10:50:57.658Z,101302.19
2023-05-14T10:53:43.945Z,101301.91
2023-05-14T10:56:30.230Z,101301.66
2023-05-14T10:59:17.545Z,101297.56
2023-05-14T11:02:06.313Z,101288.81
2023-05-14T11:05:03.594Z,101289.22
2023-05-14T11:07:51.252Z,101283.31
2023-05-14T11:10:38.839Z,101277.91
2023-05-14T11:13:24.563Z,101269.31
2023-05-14T11:19:03.416Z,101268.88
2023-05-14T11:21:49.571Z,101271.94
2023-05-14T11:24:37.255Z,101254.88
2023-05-14T11:27:23.828Z,101261.59
2023-05-14T11:30:14.503Z,101259.88
2023-05-14T11:33:01.885Z,101251.41
2023-05-14T11:35:49.164Z,101255.53
2023-05-14T11:38:35.651Z,101250.69
2023-05-14T11:41:23.493Z,101244.53
2023-05-14T11:44:11.453Z,101247.59
2023-05-14T11:46:58.321Z,101242.63
2023-05-14T11:49:44.853Z,101234.13
2023-05-14T11:52:31.119Z,101232.97
2023-05-14T11:55:17.943Z,101236.03
2023-05-14T11:58:05.641Z,101231.03
2023-05-14T12:00:52.070Z,101236.91
2023-05-14T12:03:38.052Z,101235.19
2023-05-14T12:06:31.497Z,101231.88
2023-05-14T12:09:17.847Z,101224.16
2023-05-14T12:12:09.285Z,101225.59
2023-05-14T12:14:56.441Z,101228.22
2023-05-14T12:17:42.874Z,101232.75
2023-05-14T12:20:30.482Z,101212.53
2023-05-14T12:23:16.661Z,101218.91
2023-05-14T12:26:03.468Z,101211.06
2023-05-14T12:28:49.451Z,101208.03
2023-05-14T12:31:37.223Z,101198.09
2023-05-14T12:34:23.339Z,101196.94
2023-05-14T12:37:09.150Z,101190.59
2023-05-14T12:39:55.222Z,101184.59
2023-05-14T12:42:41.568Z,101181.75
2023-05-14T12:45:27.605Z,101174.91
2023-05-14T12:48:15.436Z,101174.84
2023-05-14T12:51:01.652Z,101171.59
2023-05-14T12:53:47.713Z,101172.78
2023-05-14T12:56:33.602Z,101158.34
2023-05-14T12:59:19.534Z,101170.53
2023-05-14T13:02:05.672Z,101169.97
2023-05-14T13:04:53.108Z,101155.78
2023-05-14T13:07:39.404Z,101150.13
2023-05-14T13:10:25.601Z,101151.16
2023-05-14T13:13:11.832Z,101147.75
2023-05-14T13:15:57.816Z,101126.34
2023-05-14T13:18:43.612Z,101132.09
2023-05-14T13:21:31.247Z,101129.19
2023-05-14T13:24:17.415Z,101109.59
2023-05-14T13:27:03.467Z,101116.81
2023-05-14T13:29:49.278Z,101121.69
2023-05-14T13:32:35.449Z,101118.81
2023-05-14T13:35:21.878Z,101115.56
2023-05-14T13:38:09.482Z,101114.06
2023-05-14T13:40:57.253Z,101113.06
2023-05-14T13:43:43.307Z,101109.44
2023-05-14T13:46:29.210Z,101105.25
2023-05-14T13:49:15.841Z,101111.34
2023-05-14T13:52:01.691Z,101102.78
2023-05-14T13:54:49.068Z,101094.59
2023-05-14T13:57:35.087Z,101104.97
2023-05-14T14:00:21.297Z,101093.75
2023-05-14T14:03:08.377Z,101092.22
2023-05-14T14:05:54.715Z,101088.84
2023-05-14T14:08:40.887Z,101086.84
2023-05-14T14:11:28.478Z,101078.31
2023-05-14T14:14:14.448Z,101085.28
2023-05-14T14:17:00.314Z,101081.25
2023-05-14T14:19:46.214Z,101077.09
2023-05-14T14:22:32.130Z,101078.56
2023-05-14T14:25:18.190Z,101077.97
2023-05-14T14:28:05.723Z,101078.78
2023-05-14T14:30:51.742Z,101074.97
2023-05-14T14:33:37.841Z,101080.75
2023-05-14T14:36:23.676Z,101079.47
2023-05-14T14:39:09.581Z,101082.31
2023-05-14T14:41:55.899Z,101076.78
2023-05-14T14:44:43.621Z,101080.59
2023-05-14T14:47:30.493Z,101076.09
2023-05-14T14:50:16.902Z,101068.69
2023-05-14T14:53:02.849Z,101075.50
2023-05-14T14:55:48.980Z,101063.78
2023-05-14T14:58:34.963Z,101064.72
2023-05-14T15:01:22.744Z,101076.59
2023-05-14T15:04:08.927Z,101063.88
2023-05-14T15:06:55.182Z,101062.69
2023-05-14T15:09:41.086Z,101054.53
2023-05-14T15:12:27.357Z,101059.22
2023-05-14T15:15:13.398Z,101049.94
2023-05-14T15:18:00.598Z,101058.66
2023-05-14T15:20:46.825Z,101051.44
2023-05-14T15:23:33.001Z,101054.41
2023-05-14T15:26:18.952Z,101048.50
2023-05-14T15:29:05.620Z,101049.44
2023-05-14T15:31:51.645Z,101041.75
2023-05-14T15:34:39.336Z,101039.09
2023-05-14T15:37:25.476Z,101040.00
2023-05-14T15:40:12.820Z,101035.81
2023-05-14T15:42:58.480Z,101038.97
2023-05-14T15:45:45.598Z,101031.91
2023-05-14T15:48:31.838Z,101026.69
2023-05-14T15:51:19.058Z,101026.94
2023-05-14T15:54:05.351Z,101027.09
2023-05-14T15:56:51.628Z,101030.72
2023-05-14T15:59:37.492Z,101030.09
2023-05-14T16:02:23.491Z,101025.09
2023-05-14T16:05:10.304Z,101033.19
2023-05-14T16:07:57.671Z,101035.72
2023-05-14T16:10:43.851Z,101030.69
2023-05-14T16:13:29.895Z,101038.66
2023-05-14T16:16:15.950Z,101043.56
2023-05-14T16:19:01.922Z,101032.25
2023-05-14T16:21:48.262Z,101035.19
2023-05-14T16:24:36.110Z,101026.81
2023-05-14T16:27:22.299Z,101029.22
2023-05-14T16:30:09.297Z,101027.59
2023-05-14T16:32:55.136Z,101020.56
2023-05-14T16:35:41.181Z,101027.13
2023-05-14T16:38:27.263Z,101021.72
2023-05-14T16:41:14.425Z,101015.78
2023-05-14T16:44:00.683Z,101011.53
2023-05-14T16:46:46.866Z,101010.69
2023-05-14T16:49:32.905Z,101011.22
2023-05-14T16:52:18.833Z,101008.72
2023-05-14T16:55:05.482Z,101009.56
2023-05-14T16:57:52.962Z,101009.13
2023-05-14T17:00:38.772Z,101003.94
2023-05-14T17:03:25.144Z,101012.59
2023-05-14T17:06:11.567Z,100998.91
2023-05-14T17:08:57.722Z,101007.34
2023-05-14T17:11:43.679Z,101003.53
2023-05-14T17:14:31.521Z,101001.88
2023-05-14T17:17:17.554Z,101000.66
2023-05-14T17:20:05.647Z,100997.69
2023-05-14T17:22:52.109Z,100994.91
2023-05-14T17:25:38.320Z,100993.13
2023-05-14T17:28:24.801Z,101000.44
2023-05-14T17:31:12.302Z,100997.44
2023-05-14T17:33:58.731Z,100996.22
2023-05-14T17:36:45.885Z,100999.72
2023-05-14T17:39:32.222Z,100991.06
2023-05-14T17:42:18.196Z,100992.59
2023-05-14T17:45:04.888Z,101000.44
2023-05-14T17:47:52.307Z,100995.81
2023-05-14T17:50:39.537Z,100990.56
2023-05-14T17:53:25.586Z,100996.69
2023-05-14T17:56:11.615Z,100997.56
2023-05-14T17:58:57.845Z,100997.09
2023-05-14T18:01:44.252Z,100996.97
2023-05-14T18:04:31.684Z,101007.19
2023-05-14T18:07:19.061Z,101002.22
2023-05-14T18:10:06.075Z,100996.75
2023-05-14T18:12:52.473Z,101006.84
2023-05-14T18:15:38.708Z,101001.47
2023-05-14T18:18:24.681Z,101012.84
2023-05-14T18:21:12.128Z,101008.28
2023-05-14T18:23:58.065Z,101010.19
2023-05-14T18:26:43.932Z,101012.41
2023-05-14T18:29:30.175Z,101009.53
2023-05-14T18:32:15.921Z,101013.69
2023-05-14T18:35:01.829Z,101008.63
2023-05-14T18:37:49.107Z,101014.09
2023-05-14T18:40:35.247Z,101011.47
2023-05-14T18:43:21.257Z,101016.00
2023-05-14T18:46:07.399Z,101014.59
2023-05-14T18:48:53.750Z,101016.06
2023-05-14T18:51:39.759Z,101012.59
2023-05-14T18:54:26.932Z,101009.19
2023-05-14T18:57:13.492Z,101013.81
2023-05-14T19:00:02.012Z,101012.03
2023-05-14T19:02:48.837Z,101022.47
2023-05-14T19:05:35.031Z,101014.78
2023-05-14T19:08:21.009Z,101015.34
2023-05-14T19:11:08.632Z,101015.22
2023-05-14T19:13:54.712Z,101019.09
2023-05-14T19:16:41.208Z,101021.78
2023-05-14T19:19:27.154Z,101021.44
2023-05-14T19:22:13.072Z,101022.94
2023-05-14T19:24:59.069Z,101032.13
2023-05-14T19:27:50.504Z,101017.13
2023-05-14T19:30:36.621Z,101032.13
2023-05-14T19:33:22.588Z,101029.72
2023-05-14T19:36:08.555Z,101026.97
2023-05-14T19:38:54.775Z,101026.69
2023-05-14T19:41:40.697Z,101020.44
2023-05-14T19:44:27.796Z,101021.50
2023-05-14T19:47:13.827Z,101024.28
2023-05-14T19:49:59.968Z,101019.28
2023-05-14T19:52:45.907Z,101025.63
2023-05-14T19:55:31.751Z,101017.38
2023-05-14T19:58:17.714Z,101018.88
2023-05-14T20:01:04.953Z,101021.44
2023-05-14T20:03:51.010Z,101018.59
2023-05-14T20:06:38.079Z,101014.31
2023-05-14T20:09:24.328Z,101020.25
2023-05-14T20:12:10.629Z,101018.75
2023-05-14T20:14:56.682Z,101018.59
2023-05-14T20:17:44.245Z,101023.41
2023-05-14T20:20:32.875Z,101031.34
2023-05-14T20:23:20.496Z,101024.72
2023-05-14T20:26:06.557Z,101018.38
2023-05-14T20:28:53.541Z,101022.53
2023-05-14T20:31:40.050Z,101011.38
2023-05-14T20:34:27.158Z,101015.81
2023-05-14T20:37:13.574Z,101010.41
2023-05-14T20:40:00.023Z,101011.97
2023-05-14T20:42:45.960Z,101015.13
2023-05-14T20:45:31.741Z,101002.34
2023-05-14T20:48:17.790Z,101001.50
2023-05-14T20:51:06.382Z,100996.97
2023-05-14T20:53:52.561Z,100995.97
2023-05-14T20:56:38.921Z,101001.47
2023-05-14T20:59:25.242Z,101000.59
2023-05-14T21:02:11.634Z,100989.13
2023-05-14T21:04:58.290Z,100990.28
2023-05-14T21:07:46.025Z,100991.94
2023-05-14T21:10:32.224Z,100985.16
2023-05-14T21:13:18.202Z,100985.84
2023-05-14T21:16:04.057Z,100990.53
2023-05-14T21:18:50.005Z,100984.88
2023-05-14T21:21:36.037Z,100986.13
2023-05-14T21:24:23.098Z,100977.31
2023-05-14T21:27:08.919Z,100981.09
2023-05-14T21:29:55.582Z,100984.00
2023-05-14T21:32:41.510Z,100988.34
2023-05-14T21:35:27.492Z,100980.06
2023-05-14T21:38:13.883Z,100980.31
2023-05-14T21:41:01.296Z,100971.00
2023-05-14T21:43:47.518Z,100969.53
2023-05-14T21:46:33.732Z,100971.88
2023-05-14T21:49:19.542Z,100969.38
2023-05-14T21:52:06.184Z,100965.66
2023-05-14T21:54:52.237Z,100963.59
2023-05-14T21:57:39.530Z,100968.38
2023-05-14T22:00:25.556Z,100965.88
2023-05-14T22:03:11.940Z,100966.09
2023-05-14T22:05:58.144Z,100961.31
2023-05-14T22:08:44.448Z,100960.91
2023-05-14T22:11:30.415Z,100964.00
2023-05-14T22:14:18.038Z,100966.97
2023-05-14T22:17:04.631Z,100959.09
2023-05-14T22:19:50.514Z,100964.47
2023-05-14T22:22:36.885Z,100957.84
2023-05-14T22:25:23.181Z,100956.63
2023-05-14T22:28:09.306Z,100954.78
2023-05-14T22:30:59.557Z,100950.00
2023-05-14T22:33:45.827Z,100948.56
2023-05-14T22:36:31.494Z,100946.50
2023-05-14T22:39:17.355Z,100948.19
2023-05-14T22:42:03.698Z,100940.72
2023-05-14T22:44:49.403Z,100943.44
2023-05-14T22:47:36.687Z,100934.09
2023-05-14T22:50:22.634Z,100932.22
2023-05-14T22:53:08.538Z,100932.22
2023-05-14T22:55:54.397Z,100930.78
2023-05-14T22:58:40.377Z,100930.16
2023-05-14T23:01:26.572Z,100916.69
2023-05-14T23:04:13.726Z,100927.03
2023-05-14T23:06:59.904Z,100927.88
2023-05-14T23:09:46.293Z,100924.13
2023-05-14T23:12:32.661Z,100923.53
2023-05-14T23:15:18.771Z,100915.03
2023-05-14T23:18:05.736Z,100916.69
2023-05-14T23:20:53.212Z,100912.94
2023-05-14T23:23:39.087Z,100910.25
2023-05-14T23:26:25.483Z,100910.91
2023-05-14T23:29:11.585Z,100907.75
2023-05-14T23:31:57.613Z,100907.16
2023-05-14T23:34:44.367Z,100894.69
2023-05-14T23:37:31.607Z,100896.56
2023-05-14T23:40:17.847Z,100894.06
2023-05-14T23:43:04.052Z,100892.00
2023-05-14T23:45:50.037Z,100900.53
2023-05-14T23:48:36.463Z,100887.25
2023-05-14T23:51:22.402Z,100888.47
2023-05-14T23:54:09.695Z,100887.66
2023-05-14T23:56:55.785Z,100881.63
2023-05-14T23:59:41.675Z,100876.88
